Historyczne dane pomiarowe

Dodano dane terminowe – wersja testowa.

Dane z okresu 1951-2019

Wersja bazy: 1.34 [2019-03-16, lista zmian], aktualizacja planowana na 2019-04-15

Dane meteo z obszaru Polski uzyskane na podstawie danych udostępnionych przez Instytut Meteorologii i Gospodarki Wodnej – Państwowy Instytut Badawczy.

 

Wybierz Datę:    

       

TemperaturaWilgotnośćWiatrCiśnienieOpadyŚniegCzas trwania zjawisk
 Stacja t tx tn tng RH VA  wxwx mslp ppp RRR   cm mm wxwxwxwxwxwxwx
1999-08-14 14.2 21.4 4.9- 67.8- 1.7 1.3---- 4.3------------
1999-08-13 14.0 18.5 10.2- 84.8- 4.3 3.7---- 1.6------------
1999-08-12 16.0 19.7 12.3- 78.8- 6.7 2.3---- 0.0------------
1999-08-11 17.6 21.0 15.7- 81.0- 7.0 3.7---- 1.0------------
1999-08-10 19.8 26.0 14.4- 77.0- 4.7 1.7---- 1.9------------
1999-08-09 20.4 27.7 15.7- 77.5- 2.0 1.7---- 6.5------------
1999-08-08 22.1 28.2 15.4- 66.5- 4.3 1.7---- 2.3------------
1999-08-07 20.9 28.1 12.2- 70.0- 4.3 0.3---- 0.1------------
1999-08-06 20.0 27.7 11.2- 60.0- 1.3 2.3---- 0.0------------
1999-08-05 19.7 28.3 10.0- 56.5- 3.3 0.3---- 0.0------------
1999-08-04 19.0 27.0 9.2- 54.5- 1.3 2.3---- 0.0------------
1999-08-03 18.9 26.7 7.6- 53.0- 2.0 1.7---- 0.0------------
1999-08-02 18.5 26.9 7.2- 60.3- 1.3 2.7---- 0.0------------
1999-08-01 19.1 27.2 7.6- 54.8- 1.0 3.7---- 0.0------------
1999-07-31 19.8 27.5 8.8- 52.3- 1.7 2.7---- 0.0------------
1999-07-30 18.2 26.6 5.7- 60.3- 0.3 3.0---- 0.0------------
1999-07-29 17.6 24.9 5.6- 53.3- 1.7 3.3---- 0.0------------
1999-07-28 17.0 23.9 7.1- 62.5- 1.3 4.0---- 0.0------------
1999-07-27 14.7 21.9 4.9- 75.3- 4.7 1.3---- 0.0------------
1999-07-26 17.3 22.9 13.2- 78.8- 4.7 2.3---- 4.0------------
1999-07-25 20.3 25.1 14.3- 71.8- 4.0 1.3---- 0.0------------
1999-07-24 15.9 18.5 13.9- 81.5- 6.7 1.7---- 0.2------------
1999-07-23 15.0 19.0 10.3- 86.3- 7.7 3.3---- 0.0------------
1999-07-22 17.4 22.5 12.7- 59.5- 1.7 4.0---- 0.0------------
1999-07-21 20.7 24.9 14.9- 72.5- 2.3 4.0---- 0.0------------
1999-07-20 21.7 29.0 12.2- 63.8- 2.7 2.3---- 2.0------------
1999-07-19 22.2 29.6 14.5- 72.3- 1.0 0.3---- 0.0------------
1999-07-18 20.1 27.6 11.3- 68.0- 2.0 2.0---- 0.0------------
1999-07-17 17.8 23.3 10.8- 74.5- 3.3 1.3---- 0.0------------
1999-07-16 16.0 20.4 10.8- 74.0- 4.3 1.0---- 0.6------------
1999-07-15 16.3 20.5 12.5- 73.3- 2.7 3.3---- 0.5------------
1999-07-14 18.8 23.9 12.0- 85.8- 6.7 2.7---- 0.5------------
1999-07-13 21.5 28.0 12.7- 75.0- 4.0 3.0---- 7.0------------
1999-07-12 21.7 28.0 12.7- 51.8- 5.0 3.7---- 0.0------------
1999-07-11 20.5 27.1 11.3- 54.8- 0.0 5.7---- 0.0------------
1999-07-10 19.5 25.5 10.3- 60.0- 0.3 4.7---- 0.0------------
1999-07-09 18.5 23.9 13.4- 61.5- 2.0 6.0---- 0.0------------
1999-07-08 17.9 21.4 14.2- 74.5- 3.0 3.7---- 0.3------------
1999-07-07 16.3 18.1 14.1- 85.8- 5.0 3.0---- 0.2------------
1999-07-06 21.1 28.6 17.1- 84.8- 6.3 3.0---- 33.3------------
1999-07-05 24.8 32.4 16.5- 64.5- 1.3 4.3---- 15.6------------
1999-07-04 16.7 21.4 9.8- 76.8- 3.3 3.3---- 0.0------------
1999-07-03 17.1 20.1 13.0- 86.5- 5.7 1.0---- 0.0------------
1999-07-02 14.9 22.9 4.9- 70.3- 2.3 4.3---- 0.0------------
1999-07-01 14.8 21.9 8.3- 67.3- 2.7 2.3---- 6.3------------
1999-06-30 19.4 26.5 12.7- 65.5- 3.7 0.0---- 7.5------------
1999-06-29 18.0 22.9 11.1- 62.8- 1.7 0.7---- 0.0------------
1999-06-28 19.6 24.4 15.7- 80.0- 3.7 1.7---- 1.9------------
1999-06-27 18.6 24.3 9.3- 71.0- 4.0 2.3---- 0.0------------
1999-06-26 12.7 19.1 3.5- 69.8- 3.3 2.7---- 0.0------------
1999-06-25 11.9 16.8 5.7- 71.3- 4.7 1.7---- 0.0------------
1999-06-24 11.5 17.3 2.9- 75.0- 3.7 2.0---- 5.9------------
1999-06-23 13.0 15.9 9.3- 64.8- 4.7 5.3---- 0.0------------
1999-06-22 10.8 13.9 5.8- 87.3- 8.0 1.7---- 1.3------------
1999-06-21 15.3 20.7 11.8- 82.3- 6.3 3.0---- 1.7------------
1999-06-20 18.1 22.9 11.7- 71.8- 4.0 1.0---- 1.6------------
1999-06-19 16.6 20.6 12.3- 82.0- 6.7 2.3---- 0.0------------
1999-06-18 16.5 20.7 12.6- 76.0- 5.7 5.7---- 0.0------------
1999-06-17 16.7 22.4 8.8- 73.5- 3.3 1.3---- 0.0------------
1999-06-16 17.3 24.4 9.3- 71.0- 3.0 4.3---- 0.0------------
623.0 ms

 

Źródłem pochodzenia danych jest Instytut Meteorologii i Gospodarki Wodnej – Państwowy Instytut Badawczy. Dane Instytutu Meteorologii i Gospodarki Wodnej – Państwowego Instytutu Badawczego zostały przetworzone.

Dane źródłowe można odnaleźć na stronie https://dane.imgw.pl